createdAt,value
2023-05-17T00:02:24.384Z,4.88
2023-05-17T00:04:54.480Z,10.00
2023-05-17T00:07:26.785Z,10.73
2023-05-17T00:09:56.595Z,9.60
2023-05-17T00:12:26.313Z,7.50
2023-05-17T00:14:56.337Z,7.82
2023-05-17T00:17:26.174Z,7.18
2023-05-17T00:19:56.063Z,7.38
2023-05-17T00:22:28.607Z,9.68
2023-05-17T00:24:58.390Z,8.20
2023-05-17T00:27:28.169Z,8.18
2023-05-17T00:29:57.929Z,8.50
2023-05-17T00:32:27.693Z,9.83
2023-05-17T00:34:57.503Z,8.13
2023-05-17T00:37:29.883Z,7.60
2023-05-17T00:39:59.874Z,8.35
2023-05-17T00:42:29.668Z,8.70
2023-05-17T00:44:59.447Z,8.90
2023-05-17T00:47:29.238Z,10.15
2023-05-17T00:49:59.118Z,10.93
2023-05-17T00:52:31.538Z,9.75
2023-05-17T00:55:01.732Z,7.65
2023-05-17T00:57:32.282Z,10.38
2023-05-17T01:00:04.486Z,10.23
2023-05-17T01:02:34.351Z,7.10
2023-05-17T01:05:04.914Z,11.77
2023-05-17T01:07:37.378Z,7.80
2023-05-17T01:10:08.193Z,10.48
2023-05-17T01:12:44.791Z,10.35
2023-05-17T01:15:18.089Z,8.70
2023-05-17T01:17:53.854Z,8.93
2023-05-17T01:20:29.049Z,12.82
2023-05-17T01:23:13.968Z,9.70
2023-05-17T01:25:54.006Z,11.60
2023-05-17T01:28:32.717Z,12.43
2023-05-17T01:31:05.497Z,9.65
2023-05-17T01:33:35.932Z,13.10
2023-05-17T01:36:05.806Z,10.48
2023-05-17T01:38:35.596Z,12.02
2023-05-17T01:41:09.792Z,10.93
2023-05-17T01:43:45.295Z,15.17
2023-05-17T01:46:19.232Z,16.00
2023-05-17T01:48:53.680Z,10.43
2023-05-17T01:51:27.087Z,14.75
2023-05-17T01:54:00.449Z,14.82
2023-05-17T01:56:31.875Z,15.10
2023-05-17T01:59:06.114Z,13.93
2023-05-17T02:01:37.076Z,13.60
2023-05-17T02:04:07.394Z,14.30
2023-05-17T02:06:37.293Z,18.02
2023-05-17T02:09:07.199Z,15.55
2023-05-17T02:11:37.008Z,15.37
2023-05-17T02:14:09.351Z,16.15
2023-05-17T02:16:39.177Z,17.03
2023-05-17T02:19:09.417Z,15.65
2023-05-17T02:21:39.108Z,17.77
2023-05-17T02:24:09.564Z,13.93
2023-05-17T02:26:42.925Z,15.18
2023-05-17T02:29:15.319Z,16.23
2023-05-17T02:31:46.255Z,16.50
2023-05-17T02:34:16.080Z,17.77
2023-05-17T02:36:46.162Z,14.15
2023-05-17T02:39:16.070Z,16.08
2023-05-17T02:41:45.847Z,14.00
2023-05-17T02:44:18.190Z,12.35
2023-05-17T02:46:48.018Z,14.27
2023-05-17T02:49:17.765Z,14.85
2023-05-17T02:51:47.632Z,14.82
2023-05-17T02:54:24.838Z,14.73
2023-05-17T02:56:54.696Z,13.60
2023-05-17T02:59:27.285Z,14.98
2023-05-17T03:01:57.892Z,10.80
2023-05-17T03:04:27.647Z,11.15
2023-05-17T03:06:58.500Z,10.70
2023-05-17T03:09:30.094Z,13.10
2023-05-17T03:12:00.428Z,13.47
2023-05-17T03:14:36.523Z,16.05
2023-05-17T03:17:06.573Z,11.43
2023-05-17T03:19:39.026Z,12.80
2023-05-17T03:22:08.889Z,10.97
2023-05-17T03:24:38.769Z,13.02
2023-05-17T03:27:09.190Z,11.57
2023-05-17T03:29:42.044Z,11.93
2023-05-17T03:32:12.414Z,11.52
2023-05-17T03:34:42.470Z,10.10
2023-05-17T03:37:12.225Z,13.20
2023-05-17T03:39:42.048Z,13.02
2023-05-17T03:42:11.916Z,14.95
2023-05-17T03:44:44.541Z,10.48
2023-05-17T03:47:16.051Z,9.85
2023-05-17T03:49:46.743Z,18.17
2023-05-17T03:52:17.140Z,12.25
2023-05-17T03:54:48.223Z,12.82
2023-05-17T03:57:19.767Z,11.83
2023-05-17T03:59:52.195Z,22.40
2023-05-17T04:02:24.397Z,11.98
2023-05-17T04:04:54.738Z,15.57
2023-05-17T04:07:26.112Z,19.48
2023-05-17T04:09:58.946Z,15.48
2023-05-17T04:12:31.687Z,14.93
2023-05-17T04:15:06.931Z,12.50
2023-05-17T04:17:38.699Z,12.63
2023-05-17T04:20:09.724Z,14.57
2023-05-17T04:22:39.612Z,16.23
2023-05-17T04:25:10.298Z,19.00
2023-05-17T04:27:41.125Z,22.55
2023-05-17T04:30:16.207Z,19.48
2023-05-17T04:32:46.273Z,21.75
2023-05-17T04:35:16.358Z,19.67
2023-05-17T04:37:50.036Z,19.95
2023-05-17T04:40:24.894Z,26.45
2023-05-17T04:42:54.967Z,22.13
2023-05-17T04:45:27.978Z,24.48
2023-05-17T04:47:59.686Z,28.00
2023-05-17T04:50:30.348Z,29.15
2023-05-17T04:53:00.197Z,28.00
2023-05-17T04:55:31.107Z,30.90
2023-05-17T04:58:01.627Z,22.85
2023-05-17T05:00:34.535Z,18.05
2023-05-17T05:03:07.777Z,26.88
2023-05-17T05:05:39.358Z,24.08
2023-05-17T05:08:09.568Z,29.48
2023-05-17T05:10:39.448Z,23.40
2023-05-17T05:13:09.324Z,22.92
2023-05-17T05:15:41.880Z,28.10
2023-05-17T05:18:11.733Z,27.48
2023-05-17T05:20:41.532Z,33.45
2023-05-17T05:23:11.999Z,29.13
2023-05-17T05:25:41.942Z,28.90
2023-05-17T05:28:12.291Z,29.17
2023-05-17T05:30:46.122Z,26.80
2023-05-17T05:33:17.363Z,32.22
2023-05-17T05:35:48.801Z,29.80
2023-05-17T05:38:18.688Z,29.50
2023-05-17T05:40:49.205Z,31.60
2023-05-17T05:43:19.162Z,28.55
2023-05-17T05:45:52.377Z,32.15
2023-05-17T05:48:24.480Z,31.07
2023-05-17T05:50:55.187Z,29.60
2023-05-17T05:53:25.159Z,29.50
2023-05-17T05:55:57.846Z,31.67
2023-05-17T05:58:28.651Z,23.92
2023-05-17T06:01:02.100Z,25.13
2023-05-17T06:03:33.162Z,24.03
2023-05-17T06:06:03.098Z,27.05
2023-05-17T06:08:32.887Z,29.38
2023-05-17T06:11:02.642Z,28.13
2023-05-17T06:13:32.421Z,24.60
2023-05-17T06:16:05.913Z,17.23
2023-05-17T06:18:36.899Z,20.48
2023-05-17T06:21:07.041Z,18.75
2023-05-17T06:23:36.829Z,21.90
2023-05-17T06:26:10.591Z,18.55
2023-05-17T06:28:40.427Z,18.77
2023-05-17T06:31:12.790Z,13.85
2023-05-17T06:33:42.681Z,18.05
2023-05-17T06:36:12.692Z,20.73
2023-05-17T06:38:42.495Z,17.83
2023-05-17T06:41:12.293Z,17.52
2023-05-17T06:43:42.119Z,14.40
2023-05-17T06:46:14.402Z,19.92
2023-05-17T06:48:44.469Z,13.32
2023-05-17T06:51:14.392Z,19.55
2023-05-17T06:53:44.123Z,18.35
2023-05-17T06:56:14.706Z,23.93
2023-05-17T06:58:44.509Z,16.05
2023-05-17T07:01:17.120Z,18.90
2023-05-17T07:03:47.063Z,15.13
2023-05-17T07:06:16.913Z,19.73
2023-05-17T07:08:46.756Z,15.70
2023-05-17T07:11:16.559Z,15.48
2023-05-17T07:13:46.908Z,20.05
2023-05-17T07:16:19.317Z,20.45
2023-05-17T07:18:49.157Z,15.73
2023-05-17T07:21:18.923Z,15.23
2023-05-17T07:23:48.710Z,16.48
2023-05-17T07:26:18.481Z,13.35
2023-05-17T07:28:48.217Z,14.45
2023-05-17T07:31:20.833Z,17.23
2023-05-17T07:33:50.800Z,17.20
2023-05-17T07:36:20.615Z,17.02
2023-05-17T07:38:50.463Z,15.03
2023-05-17T07:41:22.613Z,15.43
2023-05-17T07:43:52.878Z,14.88
2023-05-17T07:46:25.282Z,16.92
2023-05-17T07:48:58.077Z,17.93
2023-05-17T07:51:28.600Z,11.88
2023-05-17T07:53:58.343Z,14.13
2023-05-17T07:56:28.042Z,20.95
2023-05-17T07:58:58.224Z,13.00
2023-05-17T08:01:30.633Z,14.70
2023-05-17T08:04:00.530Z,21.55
2023-05-17T08:06:30.562Z,18.67
2023-05-17T08:09:00.484Z,16.50
2023-05-17T08:11:30.321Z,16.20
2023-05-17T08:14:00.073Z,15.02
2023-05-17T08:16:32.484Z,10.88
2023-05-17T08:19:02.370Z,13.15
2023-05-17T08:21:32.186Z,14.18
2023-05-17T08:24:03.400Z,14.75
2023-05-17T08:26:33.980Z,19.40
2023-05-17T08:29:04.934Z,16.83
2023-05-17T08:31:37.380Z,11.63
2023-05-17T08:34:07.368Z,10.83
2023-05-17T08:36:37.289Z,16.20
2023-05-17T08:39:08.664Z,15.75
2023-05-17T08:41:38.615Z,12.23
2023-05-17T08:44:08.991Z,9.48
2023-05-17T08:46:42.204Z,13.05
2023-05-17T08:49:13.166Z,7.22
2023-05-17T08:51:43.973Z,10.80
2023-05-17T08:54:14.408Z,9.50
2023-05-17T08:56:45.677Z,18.27
2023-05-17T08:59:15.592Z,12.88
2023-05-17T09:01:49.783Z,11.60
2023-05-17T09:04:20.108Z,16.33
2023-05-17T09:06:50.752Z,18.33
2023-05-17T09:09:21.455Z,14.50
2023-05-17T09:11:51.574Z,11.33
2023-05-17T09:14:21.546Z,10.57
2023-05-17T09:16:59.824Z,13.18
2023-05-17T09:19:30.009Z,9.90
2023-05-17T09:22:03.030Z,12.00
2023-05-17T09:24:33.445Z,12.45
2023-05-17T09:27:07.364Z,12.82
2023-05-17T09:29:38.122Z,9.52
2023-05-17T09:32:21.074Z,14.30
2023-05-17T09:34:52.691Z,14.55
2023-05-17T09:37:23.278Z,13.57
2023-05-17T09:39:53.028Z,12.52
2023-05-17T09:42:23.091Z,12.93
2023-05-17T09:44:54.695Z,12.27
2023-05-17T09:47:28.948Z,12.00
2023-05-17T09:50:00.808Z,11.75
2023-05-17T09:52:32.383Z,14.88
2023-05-17T09:55:03.328Z,15.95
2023-05-17T09:57:41.516Z,9.68
2023-05-17T10:00:13.462Z,16.08
2023-05-17T10:02:48.055Z,15.13
2023-05-17T10:05:18.270Z,15.45
2023-05-17T10:07:49.115Z,11.95
2023-05-17T10:10:19.527Z,9.52
2023-05-17T10:12:50.610Z,13.15
2023-05-17T10:15:20.697Z,10.90
2023-05-17T10:17:53.716Z,9.27
2023-05-17T10:20:24.631Z,16.77
2023-05-17T10:22:55.818Z,7.30
2023-05-17T10:25:26.755Z,13.20
2023-05-17T10:27:56.766Z,8.80
2023-05-17T10:30:26.736Z,16.30
2023-05-17T10:32:59.543Z,17.02
2023-05-17T10:35:31.087Z,11.93
2023-05-17T10:38:01.023Z,10.50
2023-05-17T10:40:33.056Z,15.68
2023-05-17T10:43:02.963Z,9.23
2023-05-17T10:45:32.989Z,11.27
2023-05-17T10:48:08.562Z,14.63
2023-05-17T10:50:54.009Z,12.32
2023-05-17T10:53:30.885Z,10.60
2023-05-17T10:56:00.975Z,11.77
2023-05-17T10:58:31.527Z,10.85
2023-05-17T11:01:01.274Z,15.90
2023-05-17T11:03:34.743Z,13.38
2023-05-17T11:06:24.361Z,9.73
2023-05-17T11:09:11.725Z,10.98
2023-05-17T11:12:08.031Z,9.03
2023-05-17T11:14:51.189Z,10.63
2023-05-17T11:17:22.239Z,14.02
2023-05-17T11:19:58.831Z,9.77
2023-05-17T11:22:29.686Z,8.23
2023-05-17T11:25:00.696Z,15.95
2023-05-17T11:27:31.624Z,8.38
2023-05-17T11:30:01.589Z,8.30
2023-05-17T11:32:32.046Z,16.58
2023-05-17T11:35:05.572Z,11.63
2023-05-17T11:37:35.375Z,12.48
2023-05-17T11:40:07.194Z,7.85
2023-05-17T11:42:38.367Z,8.23
2023-05-17T11:45:09.432Z,11.48
2023-05-17T11:47:42.777Z,11.18
2023-05-17T11:50:16.678Z,11.73
2023-05-17T11:52:46.426Z,10.98
2023-05-17T11:55:17.773Z,11.57
2023-05-17T11:57:47.977Z,9.10
2023-05-17T12:00:18.889Z,9.43
2023-05-17T12:02:52.114Z,8.20
2023-05-17T12:05:26.443Z,9.18
2023-05-17T12:07:59.568Z,9.77
2023-05-17T12:10:34.637Z,8.68
2023-05-17T12:13:05.106Z,9.35
2023-05-17T12:15:34.989Z,9.48
2023-05-17T12:18:04.833Z,10.68
2023-05-17T12:20:39.132Z,10.60
2023-05-17T12:23:08.880Z,11.20
2023-05-17T12:25:38.568Z,6.63
2023-05-17T12:28:22.882Z,15.27
2023-05-17T12:30:57.891Z,15.40
2023-05-17T12:33:27.924Z,7.97
2023-05-17T12:36:00.450Z,7.78
2023-05-17T12:38:32.261Z,11.82
2023-05-17T12:41:03.944Z,11.52
2023-05-17T12:43:34.619Z,9.45
2023-05-17T12:46:09.529Z,9.45
2023-05-17T12:48:40.290Z,10.20
2023-05-17T12:51:14.708Z,9.20
2023-05-17T12:53:46.332Z,11.85
2023-05-17T12:56:19.133Z,11.43
2023-05-17T12:59:07.147Z,10.43
2023-05-17T13:01:38.145Z,8.50
2023-05-17T13:04:08.560Z,13.23
2023-05-17T13:06:52.065Z,15.27
2023-05-17T13:09:24.249Z,10.20
2023-05-17T13:11:54.203Z,12.85
2023-05-17T13:14:37.237Z,11.53
2023-05-17T13:17:07.932Z,14.48
2023-05-17T13:19:38.318Z,7.75
2023-05-17T13:22:10.920Z,14.23
2023-05-17T13:24:42.520Z,12.35
2023-05-17T13:27:12.514Z,16.67
2023-05-17T13:29:43.808Z,10.00
2023-05-17T13:32:14.599Z,11.05
2023-05-17T13:34:44.461Z,9.95
2023-05-17T13:37:16.845Z,8.73
2023-05-17T13:39:46.696Z,10.50
2023-05-17T13:42:16.524Z,9.73
2023-05-17T13:44:46.277Z,10.60
2023-05-17T13:47:16.059Z,12.70
2023-05-17T13:49:45.856Z,8.30
2023-05-17T13:52:18.788Z,7.75
2023-05-17T13:54:48.618Z,10.55
2023-05-17T13:57:18.567Z,8.10
2023-05-17T13:59:48.305Z,8.50
2023-05-17T14:02:18.463Z,11.10
2023-05-17T14:04:48.200Z,9.60
2023-05-17T14:07:20.736Z,7.53
2023-05-17T14:09:50.611Z,9.15
2023-05-17T14:12:20.601Z,11.57
2023-05-17T14:14:50.358Z,6.90
2023-05-17T14:17:20.132Z,11.27
2023-05-17T14:19:50.388Z,9.07
2023-05-17T14:22:22.764Z,8.10
2023-05-17T14:24:52.737Z,9.17
2023-05-17T14:27:22.635Z,11.02
2023-05-17T14:29:52.432Z,11.02
2023-05-17T14:32:22.421Z,7.53
2023-05-17T14:34:52.174Z,9.82
2023-05-17T14:37:24.575Z,10.68
2023-05-17T14:40:05.758Z,8.23
2023-05-17T14:42:36.584Z,10.65
2023-05-17T14:45:06.643Z,12.88
2023-05-17T14:47:37.114Z,8.27
2023-05-17T14:50:08.005Z,10.00
2023-05-17T14:52:40.513Z,15.13
2023-05-17T14:55:12.242Z,8.73
2023-05-17T14:57:42.341Z,7.45
2023-05-17T15:00:13.744Z,14.30
2023-05-17T15:02:43.642Z,8.90
2023-05-17T15:05:13.550Z,11.93
2023-05-17T15:07:46.004Z,11.32
2023-05-17T15:10:16.115Z,11.32
2023-05-17T15:12:45.849Z,7.68
2023-05-17T15:15:15.844Z,9.25
2023-05-17T15:17:45.705Z,8.65
2023-05-17T15:20:16.316Z,10.00
2023-05-17T15:22:49.003Z,13.18
2023-05-17T15:25:19.580Z,10.20
2023-05-17T15:27:49.746Z,11.05
2023-05-17T15:30:20.608Z,8.77
2023-05-17T15:32:51.065Z,10.65
2023-05-17T15:35:20.942Z,9.15
2023-05-17T15:37:54.353Z,11.15
2023-05-17T15:40:24.752Z,13.80
2023-05-17T15:42:54.583Z,10.60
2023-05-17T15:45:24.438Z,8.90
2023-05-17T15:47:55.703Z,12.55
2023-05-17T15:50:25.811Z,8.25
2023-05-17T15:52:58.412Z,13.77
2023-05-17T15:55:29.244Z,9.90
2023-05-17T15:57:59.015Z,11.90
2023-05-17T16:00:28.762Z,10.35
2023-05-17T16:02:59.584Z,9.88
2023-05-17T16:05:33.695Z,11.77
2023-05-17T16:08:06.023Z,13.05
2023-05-17T16:10:35.934Z,14.00
2023-05-17T16:13:06.063Z,14.25
2023-05-17T16:15:36.129Z,11.02
2023-05-17T16:18:06.575Z,13.88
2023-05-17T16:20:36.923Z,11.77
2023-05-17T16:23:09.632Z,14.98
2023-05-17T16:25:39.420Z,17.77
2023-05-17T16:28:09.208Z,11.32
2023-05-17T16:30:39.006Z,13.93
2023-05-17T16:33:09.255Z,10.73
2023-05-17T16:35:39.374Z,10.50
2023-05-17T16:38:12.450Z,11.20
2023-05-17T16:40:42.432Z,8.55
2023-05-17T16:43:16.074Z,16.58
2023-05-17T16:45:46.883Z,13.45
2023-05-17T16:48:17.888Z,12.75
2023-05-17T16:50:49.682Z,13.82
2023-05-17T16:53:22.165Z,15.17
2023-05-17T16:55:51.931Z,15.70
2023-05-17T16:58:21.855Z,11.93
2023-05-17T17:00:51.966Z,13.95
2023-05-17T17:03:21.912Z,13.52
2023-05-17T17:05:51.731Z,19.10
2023-05-17T17:08:24.375Z,13.95
2023-05-17T17:10:54.221Z,13.80
2023-05-17T17:13:24.021Z,12.73
2023-05-17T17:15:54.830Z,12.55
2023-05-17T17:18:24.538Z,15.82
2023-05-17T17:20:54.267Z,9.80
2023-05-17T17:23:26.684Z,15.50
2023-05-17T17:25:56.636Z,10.70
2023-05-17T17:28:26.605Z,13.35
2023-05-17T17:30:56.928Z,11.57
2023-05-17T17:33:26.970Z,12.85
2023-05-17T17:35:56.773Z,12.52
2023-05-17T17:38:29.247Z,13.80
2023-05-17T17:40:59.017Z,12.40
2023-05-17T17:43:28.734Z,11.75
2023-05-17T17:45:58.439Z,13.90
2023-05-17T17:48:28.291Z,15.27
2023-05-17T17:50:59.217Z,11.30
2023-05-17T17:53:31.723Z,11.57
2023-05-17T17:56:01.655Z,11.93
2023-05-17T17:58:32.949Z,20.50
2023-05-17T18:01:02.811Z,20.50
2023-05-17T18:03:33.022Z,15.55
2023-05-17T18:06:02.944Z,13.57
2023-05-17T18:08:35.263Z,12.57
2023-05-17T18:11:05.265Z,14.10
2023-05-17T18:13:35.114Z,12.52
2023-05-17T18:16:04.834Z,11.95
2023-05-17T18:18:34.676Z,12.75
2023-05-17T18:21:04.428Z,12.40
2023-05-17T18:23:36.810Z,13.43
2023-05-17T18:26:06.949Z,18.90
2023-05-17T18:28:42.320Z,9.50
2023-05-17T18:31:14.335Z,12.32
2023-05-17T18:33:44.120Z,13.95
2023-05-17T18:36:13.862Z,14.68
2023-05-17T18:38:46.869Z,12.82
2023-05-17T18:41:16.968Z,12.07
2023-05-17T18:43:47.292Z,14.57
2023-05-17T18:46:17.095Z,17.85
2023-05-17T18:48:47.005Z,13.15
2023-05-17T18:51:16.742Z,11.00
2023-05-17T18:53:49.188Z,13.13
2023-05-17T18:56:22.915Z,12.32
2023-05-17T18:58:54.667Z,14.40
2023-05-17T19:01:24.570Z,13.93
2023-05-17T19:03:55.470Z,13.63
2023-05-17T19:06:25.540Z,10.93
2023-05-17T19:08:58.670Z,12.02
2023-05-17T19:11:28.810Z,10.65
2023-05-17T19:13:58.793Z,14.43
2023-05-17T19:16:28.505Z,20.17
2023-05-17T19:18:58.258Z,14.57
2023-05-17T19:21:27.957Z,14.05
2023-05-17T19:24:00.776Z,13.43
2023-05-17T19:26:30.743Z,15.23
2023-05-17T19:29:00.493Z,12.33
2023-05-17T19:31:30.440Z,11.50
2023-05-17T19:34:01.760Z,10.63
2023-05-17T19:36:31.575Z,10.10
2023-05-17T19:39:03.886Z,12.47
2023-05-17T19:41:33.680Z,12.50
2023-05-17T19:44:04.055Z,13.98
2023-05-17T19:46:33.848Z,12.82
2023-05-17T19:49:03.801Z,12.20
2023-05-17T19:51:34.714Z,9.85
2023-05-17T19:54:07.558Z,9.07
2023-05-17T19:56:38.249Z,8.95
2023-05-17T19:59:08.043Z,14.90
2023-05-17T20:01:37.821Z,12.02
2023-05-17T20:04:08.024Z,12.10
2023-05-17T20:06:37.902Z,11.23
2023-05-17T20:09:10.269Z,11.27
2023-05-17T20:11:40.026Z,14.57
2023-05-17T20:14:09.824Z,11.45
2023-05-17T20:16:39.653Z,16.35
2023-05-17T20:19:09.556Z,60.88
2023-05-17T20:21:39.404Z,56.60
2023-05-17T20:24:11.967Z,32.72
2023-05-17T20:26:45.105Z,19.00
2023-05-17T20:29:15.286Z,16.17
2023-05-17T20:31:45.082Z,11.70
2023-05-17T20:34:14.867Z,12.55
2023-05-17T20:36:44.600Z,12.65
2023-05-17T20:39:17.081Z,12.98
2023-05-17T20:41:47.793Z,14.20
2023-05-17T20:44:19.628Z,16.25
2023-05-17T20:46:49.422Z,14.07
2023-05-17T20:49:19.899Z,10.23
2023-05-17T20:51:49.844Z,11.05
2023-05-17T20:54:24.349Z,10.70
2023-05-17T20:56:54.118Z,11.10
2023-05-17T20:59:23.952Z,13.07
2023-05-17T21:01:53.742Z,8.93
2023-05-17T21:04:23.611Z,10.32
2023-05-17T21:06:58.151Z,12.43
2023-05-17T21:09:30.684Z,13.27
2023-05-17T21:12:00.971Z,14.88
2023-05-17T21:14:31.147Z,13.33
2023-05-17T21:17:02.169Z,13.02
2023-05-17T21:19:32.284Z,13.07
2023-05-17T21:22:02.013Z,16.05
2023-05-17T21:24:34.356Z,13.68
2023-05-17T21:27:04.204Z,14.40
2023-05-17T21:29:33.946Z,10.80
2023-05-17T21:32:03.780Z,11.98
2023-05-17T21:34:33.638Z,11.07
2023-05-17T21:37:03.319Z,15.25
2023-05-17T21:39:35.648Z,12.50
2023-05-17T21:42:05.418Z,9.23
2023-05-17T21:44:35.118Z,12.90
2023-05-17T21:47:04.926Z,12.30
2023-05-17T21:49:34.704Z,12.35
2023-05-17T21:52:04.415Z,12.70
2023-05-17T21:54:36.756Z,16.17
2023-05-17T21:57:06.806Z,8.75
2023-05-17T21:59:36.663Z,9.07
2023-05-17T22:02:08.661Z,13.80
2023-05-17T22:04:38.967Z,16.27
2023-05-17T22:07:08.818Z,10.48
2023-05-17T22:09:41.182Z,9.18
2023-05-17T22:12:12.374Z,14.03
2023-05-17T22:14:44.628Z,11.77
2023-05-17T22:17:15.133Z,11.20
2023-05-17T22:19:45.478Z,10.57
2023-05-17T22:22:15.332Z,10.65
2023-05-17T22:24:47.622Z,9.95
2023-05-17T22:27:17.384Z,15.57
2023-05-17T22:29:47.146Z,16.83
2023-05-17T22:32:17.012Z,11.65
2023-05-17T22:34:46.722Z,11.15
2023-05-17T22:37:17.698Z,15.32
2023-05-17T22:39:50.041Z,11.00
2023-05-17T22:42:19.789Z,13.18
2023-05-17T22:44:49.654Z,12.10
2023-05-17T22:47:22.902Z,12.80
2023-05-17T22:49:53.553Z,10.82
2023-05-17T22:52:23.253Z,13.63
2023-05-17T22:54:55.723Z,10.75
2023-05-17T22:57:25.824Z,15.48
2023-05-17T22:59:55.533Z,10.57
2023-05-17T23:02:25.301Z,12.15
2023-05-17T23:04:55.813Z,20.15
2023-05-17T23:07:25.532Z,15.65
2023-05-17T23:09:58.221Z,9.32
2023-05-17T23:12:28.328Z,11.75
2023-05-17T23:14:58.300Z,12.20
2023-05-17T23:17:32.491Z,12.93
2023-05-17T23:20:08.513Z,11.60
2023-05-17T23:22:39.039Z,12.57
2023-05-17T23:25:12.691Z,14.35
2023-05-17T23:27:44.534Z,16.02
2023-05-17T23:30:15.363Z,12.57
2023-05-17T23:32:47.270Z,14.05
2023-05-17T23:35:17.259Z,14.27
2023-05-17T23:37:46.993Z,13.07
2023-05-17T23:40:19.616Z,17.02
2023-05-17T23:42:49.427Z,14.65
2023-05-17T23:45:19.247Z,11.77
2023-05-17T23:47:50.250Z,11.60
2023-05-17T23:50:20.104Z,14.73
2023-05-17T23:52:49.899Z,15.43
2023-05-17T23:55:22.736Z,9.85
2023-05-17T23:57:52.914Z,13.00
